Погода Понятна 2 недели

Подляское воеводство, Польша

18 - 31 июля
  • 18июля
    Сегодня
    +13°
    +26°
    Облачно с прояснениями
    ВремяПогодаТемператураВлажностьДавлениеВетер, м/сВероятность осадков
    02:00Облачно с прояснениями+17°C78 %756 мм2.0 м/с3 %
    05:00Ясно и безоблачно+15°C86 %756 мм2.1 м/с9 %
    08:00Ясно и безоблачно+20°C71 %757 мм2.6 м/с2 %
    11:00Облачно с прояснениями+24°C47 %757 мм4.4 м/с7 %
    14:00Облачно с прояснениями+25°C43 %757 мм5.2 м/с5 %
    17:00Облачно с прояснениями+25°C43 %756 мм5.3 м/с2 %
    20:00Ясно и безоблачно+23°C57 %757 мм3.0 м/с2 %
    23:00Облачно с прояснениями+17°C73 %757 мм2.7 м/с2 %
  • 19июля
    Пятница
    +12°
    +25°
    Ясно и безоблачно
    ВремяПогодаТемператураВлажностьДавлениеВетер, м/сВероятность осадков
    02:00Небольшая облачность+15°C89 %758 мм1.9 м/с2 %
    05:00Практически безоблачно+13°C95 %758 мм1.8 м/с2 %
    08:00Ясно и безоблачно+18°C73 %757 мм2.9 м/с2 %
    11:00Ясно и безоблачно+22°C56 %757 мм3.5 м/с2 %
    14:00Ясно и безоблачно+24°C48 %756 мм4.0 м/с2 %
    17:00Ясно и безоблачно+25°C45 %755 мм4.1 м/с2 %
    20:00Ясно и безоблачно+22°C55 %755 мм2.4 м/с2 %
    23:00Ясно и безоблачно+16°C73 %755 мм1.9 м/с2 %
  • 20июля
    Суббота
    +14°
    +26°
    Ясно и безоблачно
    ВремяПогодаТемператураВлажностьДавлениеВетер, м/сВероятность осадков
    02:00Ясно и безоблачно+14°C88 %754 мм1.9 м/с2 %
    05:00Ясно и безоблачно+12°C94 %754 мм1.9 м/с2 %
    08:00Практически безоблачно+17°C75 %753 мм1.8 м/с2 %
    11:00Ясно и безоблачно+22°C57 %753 мм2.1 м/с2 %
    14:00Ясно и безоблачно+24°C44 %752 мм2.5 м/с2 %
    17:00Ясно и безоблачно+26°C39 %751 мм2.5 м/с2 %
    20:00Ясно и безоблачно+23°C61 %751 мм1.7 м/с2 %
    23:00Ясно и безоблачно+18°C64 %751 мм3.0 м/с2 %
  • 21июля
    Воскресенье
    +15°
    +28°
    Ясно и безоблачно
    ВремяПогодаТемператураВлажностьДавлениеВетер, м/сВероятность осадков
    02:00Ясно и безоблачно+16°C85 %750 мм1.9 м/с2 %
    05:00Ясно и безоблачно+15°C92 %750 мм1.6 м/с2 %
    08:00Ясно и безоблачно+21°C69 %750 мм1.0 м/с2 %
    11:00Практически безоблачно+25°C46 %750 мм1.0 м/с2 %
    14:00Ясно и безоблачно+27°C38 %749 мм1.8 м/с2 %
    17:00Ясно и безоблачно+28°C36 %748 мм1.1 м/с2 %
    20:00Ясно и безоблачно+25°C52 %748 мм1.0 м/с2 %
    23:00Ясно и безоблачно+19°C53 %749 мм2.5 м/с2 %
  • 22июля
    Понедельник
    +14°
    +28°
    Ясно и безоблачно
    ВремяПогодаТемператураВлажностьДавлениеВетер, м/сВероятность осадков
    02:00Ясно и безоблачно+17°C65 %748 мм2.3 м/с2 %
    05:00Ясно и безоблачно+16°C74 %748 мм2.2 м/с2 %
    08:00Ясно и безоблачно+22°C60 %749 мм2.0 м/с2 %
    11:00Ясно и безоблачно+27°C42 %749 мм1.3 м/с7 %
    14:00Ясно и безоблачно+27°C37 %749 мм2.0 м/с11 %
    17:00Ясно и безоблачно+26°C34 %748 мм2.7 м/с24 %
    20:00Ясно и безоблачно+24°C43 %749 мм2.9 м/с21 %
    23:00Ясно и безоблачно+19°C50 %749 мм2.5 м/с20 %
Мы используем cookies
Соглашаюсь